createdAt,value
2023-03-08T00:00:54.481Z,42.25
2023-03-08T00:06:57.530Z,42.26
2023-03-08T00:13:00.540Z,42.57
2023-03-08T00:19:03.539Z,42.43
2023-03-08T00:25:08.880Z,42.35
2023-03-08T00:31:13.513Z,42.42
2023-03-08T00:37:16.396Z,42.35
2023-03-08T00:43:22.260Z,41.95
2023-03-08T00:49:25.199Z,42.24
2023-03-08T00:55:28.017Z,42.26
2023-03-08T01:01:34.111Z,42.09
2023-03-08T01:07:37.267Z,42.20
2023-03-08T01:13:40.459Z,41.99
2023-03-08T01:19:43.876Z,42.19
2023-03-08T01:25:46.834Z,42.65
2023-03-08T01:31:49.790Z,42.87
2023-03-08T01:37:55.400Z,42.73
2023-03-08T01:43:58.416Z,42.77
2023-03-08T01:50:06.469Z,43.47
2023-03-08T01:56:12.113Z,43.15
2023-03-08T02:02:18.171Z,42.88
2023-03-08T02:08:22.665Z,43.48
2023-03-08T02:14:27.215Z,43.56
2023-03-08T02:20:32.882Z,44.29
2023-03-08T02:26:41.969Z,43.78
2023-03-08T02:32:44.886Z,43.77
2023-03-08T02:38:47.790Z,43.83
2023-03-08T02:44:50.677Z,44.19
2023-03-08T02:50:53.694Z,44.05
2023-03-08T02:56:59.334Z,44.17
2023-03-08T03:03:02.410Z,44.53
2023-03-08T03:09:11.333Z,44.53
2023-03-08T03:15:14.730Z,43.70
2023-03-08T03:21:18.110Z,43.59
2023-03-08T03:27:21.077Z,43.55
2023-03-08T03:33:24.695Z,43.37
2023-03-08T03:39:34.617Z,43.41
2023-03-08T03:45:38.565Z,43.25
2023-03-08T03:51:41.586Z,42.79
2023-03-08T03:57:58.300Z,42.54
2023-03-08T04:04:01.808Z,42.32
2023-03-08T04:10:06.807Z,42.71
2023-03-08T04:16:15.544Z,42.71
2023-03-08T04:22:22.530Z,42.53
2023-03-08T04:28:33.881Z,41.85
2023-03-08T04:34:37.625Z,41.86
2023-03-08T04:41:02.723Z,42.09
2023-03-08T04:47:11.984Z,42.15
2023-03-08T04:53:20.419Z,42.48
2023-03-08T04:59:23.418Z,42.94
2023-03-08T05:05:26.703Z,42.65
2023-03-08T05:11:30.661Z,42.74
2023-03-08T05:17:34.187Z,42.47
2023-03-08T05:23:37.499Z,42.54
2023-03-08T05:29:40.541Z,42.70
2023-03-08T05:35:43.937Z,41.79
2023-03-08T05:41:47.065Z,42.03
2023-03-08T05:47:51.840Z,41.54
2023-03-08T05:53:54.783Z,41.26
2023-03-08T05:59:58.166Z,41.10
2023-03-08T06:06:01.622Z,41.05
2023-03-08T06:12:06.033Z,40.89
2023-03-08T06:18:09.233Z,40.63
2023-03-08T06:24:12.595Z,40.12
2023-03-08T06:30:15.739Z,40.37
2023-03-08T06:36:20.779Z,39.82
2023-03-08T06:42:39.706Z,40.22
2023-03-08T06:48:43.776Z,40.37
2023-03-08T06:54:46.771Z,40.24
2023-03-08T07:00:50.055Z,39.54
2023-03-08T07:06:53.039Z,39.69
2023-03-08T07:12:56.313Z,39.44
2023-03-08T07:19:03.186Z,39.42
2023-03-08T07:25:08.947Z,39.59
2023-03-08T07:31:13.009Z,39.03
2023-03-08T07:37:17.931Z,38.96
2023-03-08T07:43:20.944Z,39.10
2023-03-08T07:49:33.628Z,39.92
2023-03-08T07:55:37.662Z,39.79
2023-03-08T08:01:43.150Z,40.32
2023-03-08T08:07:48.099Z,40.33
2023-03-08T08:13:51.052Z,39.43
2023-03-08T08:19:54.302Z,39.55
2023-03-08T08:25:57.939Z,39.76
2023-03-08T08:32:03.121Z,40.03
2023-03-08T08:38:06.086Z,40.15
2023-03-08T08:44:09.491Z,40.11
2023-03-08T08:50:14.122Z,39.71
2023-03-08T08:56:26.606Z,39.88
2023-03-08T09:02:30.922Z,39.33
2023-03-08T09:08:33.995Z,39.36
2023-03-08T09:14:36.964Z,38.34
2023-03-08T09:20:39.981Z,38.06
2023-03-08T09:26:43.362Z,37.86
2023-03-08T09:32:46.533Z,38.87
2023-03-08T09:38:54.101Z,37.59
2023-03-08T09:45:02.319Z,37.89
2023-03-08T09:51:11.262Z,38.03
2023-03-08T09:57:18.336Z,37.04
2023-03-08T10:03:48.813Z,36.71
2023-03-08T10:10:10.308Z,35.77
2023-03-08T10:16:20.806Z,35.98
2023-03-08T10:22:32.402Z,35.70
2023-03-08T10:28:35.459Z,35.59
2023-03-08T10:34:38.871Z,35.71
2023-03-08T10:40:41.783Z,35.76
2023-03-08T10:46:48.856Z,35.23
2023-03-08T10:52:52.521Z,35.10
2023-03-08T10:58:57.619Z,34.77
2023-03-08T11:05:01.115Z,35.22
2023-03-08T11:11:08.162Z,35.25
2023-03-08T11:17:18.110Z,34.95
2023-03-08T11:24:00.599Z,34.26
2023-03-08T11:30:06.663Z,34.29
2023-03-08T11:36:24.638Z,33.66
2023-03-08T11:42:42.001Z,33.61
2023-03-08T11:49:07.187Z,33.07
2023-03-08T11:55:52.440Z,32.48
2023-03-08T12:02:05.105Z,32.13
2023-03-08T12:08:14.671Z,32.27
2023-03-08T12:14:33.659Z,32.60
2023-03-08T12:20:46.360Z,32.65
2023-03-08T12:27:16.360Z,32.87
2023-03-08T12:33:20.032Z,32.51
2023-03-08T12:39:31.181Z,32.14
2023-03-08T12:45:34.611Z,31.91
2023-03-08T12:51:40.361Z,32.10
2023-03-08T12:57:52.063Z,32.26
2023-03-08T13:03:55.660Z,32.12
2023-03-08T13:10:00.732Z,32.03
2023-03-08T13:16:17.065Z,31.61
2023-03-08T13:22:25.311Z,31.19
2023-03-08T13:28:46.163Z,31.12
2023-03-08T13:35:04.923Z,31.03
2023-03-08T13:41:07.977Z,30.67
2023-03-08T13:47:33.563Z,30.48
2023-03-08T13:53:37.552Z,30.24
2023-03-08T13:59:48.037Z,30.34
2023-03-08T14:05:51.048Z,30.59
2023-03-08T14:12:00.014Z,30.59
2023-03-08T14:18:04.797Z,30.66
2023-03-08T14:24:21.586Z,30.88
2023-03-08T14:30:30.136Z,31.04
2023-03-08T14:36:33.975Z,30.97
2023-03-08T14:42:45.818Z,31.40
2023-03-08T14:48:58.101Z,31.29
2023-03-08T14:55:22.510Z,32.36
2023-03-08T15:01:36.730Z,32.41
2023-03-08T15:07:40.154Z,32.84
2023-03-08T15:13:45.992Z,32.50
2023-03-08T15:19:48.993Z,32.13
2023-03-08T15:25:52.588Z,32.59
2023-03-08T15:31:56.068Z,33.53
2023-03-08T15:37:59.376Z,34.15
2023-03-08T15:44:02.374Z,34.38
2023-03-08T15:50:07.418Z,34.98
2023-03-08T15:56:10.471Z,36.32
2023-03-08T16:02:15.843Z,37.07
2023-03-08T16:08:19.223Z,37.58
2023-03-08T16:14:22.050Z,38.87
2023-03-08T16:20:27.964Z,38.64
2023-03-08T16:26:31.304Z,39.25
2023-03-08T16:32:34.487Z,39.30
2023-03-08T16:38:37.569Z,40.67
2023-03-08T16:44:41.844Z,41.21
2023-03-08T16:51:03.441Z,41.81
2023-03-08T16:57:18.685Z,42.64
2023-03-08T17:03:22.504Z,42.98
2023-03-08T17:09:27.818Z,43.80
2023-03-08T17:15:31.374Z,44.08
2023-03-08T17:21:38.338Z,44.45
2023-03-08T17:27:42.047Z,44.38
2023-03-08T17:33:45.314Z,45.40
2023-03-08T17:39:48.672Z,45.29
2023-03-08T17:46:04.925Z,45.80
2023-03-08T17:52:08.198Z,46.31
2023-03-08T17:58:12.011Z,47.21
2023-03-08T18:04:22.294Z,47.53
2023-03-08T18:10:26.957Z,48.19
2023-03-08T18:16:32.595Z,49.21
2023-03-08T18:22:38.538Z,49.82
2023-03-08T18:28:42.346Z,50.08
2023-03-08T18:34:45.953Z,49.84
2023-03-08T18:40:49.032Z,50.15
2023-03-08T18:46:52.668Z,50.00
2023-03-08T18:52:58.120Z,50.43
2023-03-08T18:59:04.396Z,49.36
2023-03-08T19:05:11.124Z,49.70
2023-03-08T19:11:17.272Z,49.79
2023-03-08T19:17:20.678Z,50.07
2023-03-08T19:23:26.463Z,50.08
2023-03-08T19:29:33.148Z,50.31
2023-03-08T19:35:36.431Z,49.79
2023-03-08T19:41:42.584Z,49.79
2023-03-08T19:47:46.062Z,49.08
2023-03-08T19:53:49.307Z,48.71
2023-03-08T19:59:53.166Z,47.93
2023-03-08T20:06:07.953Z,47.86
2023-03-08T20:12:14.261Z,49.30
2023-03-08T20:18:31.958Z,49.59
2023-03-08T20:24:57.357Z,49.67
2023-03-08T20:31:09.825Z,49.70
2023-03-08T20:37:16.993Z,49.88
2023-03-08T20:43:21.210Z,49.72
2023-03-08T20:49:26.558Z,48.93
2023-03-08T20:55:29.964Z,48.59
2023-03-08T21:01:36.167Z,48.28
2023-03-08T21:07:39.635Z,48.61
2023-03-08T21:13:43.300Z,49.03
2023-03-08T21:19:46.404Z,50.08
2023-03-08T21:25:51.348Z,49.38
2023-03-08T21:31:54.672Z,48.47
2023-03-08T21:37:59.975Z,48.08
2023-03-08T21:44:05.120Z,48.19
2023-03-08T21:50:09.995Z,48.74
2023-03-08T21:56:16.880Z,49.43
2023-03-08T22:02:20.159Z,49.40
2023-03-08T22:08:25.942Z,49.76
2023-03-08T22:14:29.279Z,49.52
2023-03-08T22:20:35.489Z,49.76
2023-03-08T22:26:38.538Z,50.08
2023-03-08T22:32:42.201Z,50.47
2023-03-08T22:38:45.549Z,50.36
2023-03-08T22:44:48.508Z,50.25
2023-03-08T22:51:01.586Z,50.59
2023-03-08T22:57:13.906Z,51.38
2023-03-08T23:03:17.104Z,51.86
2023-03-08T23:09:24.860Z,51.58
2023-03-08T23:15:28.202Z,51.80
2023-03-08T23:21:32.019Z,51.27
2023-03-08T23:27:35.112Z,51.41
2023-03-08T23:33:40.809Z,51.37
2023-03-08T23:39:44.032Z,51.40
2023-03-08T23:45:47.049Z,51.74
2023-03-08T23:51:52.868Z,51.87
2023-03-08T23:58:01.306Z,51.80
